sensor_id;sensor_type;location;lat;lon;timestamp;temperature;humidity
21473;DHT22;10898;48.072;11.682;2023-07-13T00:00:48;19.50;99.90
21473;DHT22;10898;48.072;11.682;2023-07-13T00:02:50;19.60;99.90
21473;DHT22;10898;48.072;11.682;2023-07-13T00:04:55;19.60;99.90
21473;DHT22;10898;48.072;11.682;2023-07-13T00:06:57;19.50;99.90
21473;DHT22;10898;48.072;11.682;2023-07-13T00:08:59;19.60;99.90
21473;DHT22;10898;48.072;11.682;2023-07-13T00:11:01;19.50;99.90
21473;DHT22;10898;48.072;11.682;2023-07-13T00:13:03;19.50;99.90
21473;DHT22;10898;48.072;11.682;2023-07-13T00:15:07;19.50;99.90
21473;DHT22;10898;48.072;11.682;2023-07-13T00:17:09;19.50;99.90
21473;DHT22;10898;48.072;11.682;2023-07-13T00:19:12;19.50;99.90
21473;DHT22;10898;48.072;11.682;2023-07-13T00:21:14;19.50;99.90
21473;DHT22;10898;48.072;11.682;2023-07-13T00:23:15;19.50;99.90
21473;DHT22;10898;48.072;11.682;2023-07-13T00:25:19;19.50;99.90
21473;DHT22;10898;48.072;11.682;2023-07-13T00:27:20;19.40;99.90
21473;DHT22;10898;48.072;11.682;2023-07-13T00:29:22;19.40;99.90
21473;DHT22;10898;48.072;11.682;2023-07-13T00:31:24;19.40;99.90
21473;DHT22;10898;48.072;11.682;2023-07-13T00:33:26;19.40;99.90
21473;DHT22;10898;48.072;11.682;2023-07-13T00:35:30;19.30;99.90
21473;DHT22;10898;48.072;11.682;2023-07-13T00:37:32;19.30;99.90
21473;DHT22;10898;48.072;11.682;2023-07-13T00:39:35;19.30;99.90
21473;DHT22;10898;48.072;11.682;2023-07-13T00:41:37;19.30;99.90
21473;DHT22;10898;48.072;11.682;2023-07-13T00:43:40;19.30;99.90
21473;DHT22;10898;48.072;11.682;2023-07-13T00:47:46;19.30;99.90
21473;DHT22;10898;48.072;11.682;2023-07-13T00:49:48;19.20;99.90
21473;DHT22;10898;48.072;11.682;2023-07-13T00:51:52;19.20;99.90
21473;DHT22;10898;48.072;11.682;2023-07-13T00:53:56;19.20;99.90
21473;DHT22;10898;48.072;11.682;2023-07-13T00:55:59;19.20;99.90
21473;DHT22;10898;48.072;11.682;2023-07-13T00:58:02;19.20;99.90
21473;DHT22;10898;48.072;11.682;2023-07-13T01:00:06;19.20;99.90
21473;DHT22;10898;48.072;11.682;2023-07-13T01:02:10;19.20;99.90
21473;DHT22;10898;48.072;11.682;2023-07-13T01:04:12;19.20;99.90
21473;DHT22;10898;48.072;11.682;2023-07-13T01:06:15;19.30;99.90
21473;DHT22;10898;48.072;11.682;2023-07-13T01:08:17;19.30;99.90
21473;DHT22;10898;48.072;11.682;2023-07-13T01:10:23;19.30;99.90
21473;DHT22;10898;48.072;11.682;2023-07-13T01:12:25;19.30;99.90
21473;DHT22;10898;48.072;11.682;2023-07-13T01:14:26;19.30;99.90
21473;DHT22;10898;48.072;11.682;2023-07-13T01:16:29;19.30;99.90
21473;DHT22;10898;48.072;11.682;2023-07-13T01:18:31;19.30;99.90
21473;DHT22;10898;48.072;11.682;2023-07-13T01:20:34;19.30;99.90
21473;DHT22;10898;48.072;11.682;2023-07-13T01:22:37;19.30;99.90
21473;DHT22;10898;48.072;11.682;2023-07-13T01:24:41;19.30;99.90
21473;DHT22;10898;48.072;11.682;2023-07-13T01:26:44;19.30;99.90
21473;DHT22;10898;48.072;11.682;2023-07-13T01:28:46;19.30;99.90
21473;DHT22;10898;48.072;11.682;2023-07-13T01:30:47;19.30;99.90
21473;DHT22;10898;48.072;11.682;2023-07-13T01:32:49;19.30;99.90
21473;DHT22;10898;48.072;11.682;2023-07-13T01:34:51;19.30;99.90
21473;DHT22;10898;48.072;11.682;2023-07-13T01:36:56;19.20;99.90
21473;DHT22;10898;48.072;11.682;2023-07-13T01:38:57;19.20;99.90
21473;DHT22;10898;48.072;11.682;2023-07-13T01:40:59;19.20;99.90
21473;DHT22;10898;48.072;11.682;2023-07-13T01:43:01;19.20;99.90
21473;DHT22;10898;48.072;11.682;2023-07-13T01:45:03;19.20;99.90
21473;DHT22;10898;48.072;11.682;2023-07-13T01:47:05;19.20;99.90
21473;DHT22;10898;48.072;11.682;2023-07-13T01:49:07;19.20;99.90
21473;DHT22;10898;48.072;11.682;2023-07-13T01:51:09;19.20;99.90
21473;DHT22;10898;48.072;11.682;2023-07-13T01:53:10;19.20;99.90
21473;DHT22;10898;48.072;11.682;2023-07-13T01:55:12;19.20;99.90
21473;DHT22;10898;48.072;11.682;2023-07-13T01:57:15;19.20;99.90
21473;DHT22;10898;48.072;11.682;2023-07-13T01:59:17;19.10;99.90
21473;DHT22;10898;48.072;11.682;2023-07-13T02:01:18;19.10;99.90
21473;DHT22;10898;48.072;11.682;2023-07-13T02:03:20;19.10;99.90
21473;DHT22;10898;48.072;11.682;2023-07-13T02:05:22;19.10;99.90
21473;DHT22;10898;48.072;11.682;2023-07-13T02:07:24;19.10;99.90
21473;DHT22;10898;48.072;11.682;2023-07-13T02:09:26;19.10;99.90
21473;DHT22;10898;48.072;11.682;2023-07-13T02:11:28;19.10;99.90
21473;DHT22;10898;48.072;11.682;2023-07-13T02:13:34;19.10;99.90
21473;DHT22;10898;48.072;11.682;2023-07-13T02:15:38;19.10;99.90
21473;DHT22;10898;48.072;11.682;2023-07-13T02:17:40;19.10;99.90
21473;DHT22;10898;48.072;11.682;2023-07-13T02:19:42;19.10;99.90
21473;DHT22;10898;48.072;11.682;2023-07-13T02:21:44;19.10;99.90
21473;DHT22;10898;48.072;11.682;2023-07-13T02:23:45;19.10;99.90
21473;DHT22;10898;48.072;11.682;2023-07-13T02:25:47;19.10;99.90
21473;DHT22;10898;48.072;11.682;2023-07-13T02:27:49;19.10;99.90
21473;DHT22;10898;48.072;11.682;2023-07-13T02:29:51;19.10;99.90
21473;DHT22;10898;48.072;11.682;2023-07-13T02:31:53;19.00;99.90
21473;DHT22;10898;48.072;11.682;2023-07-13T02:33:54;19.10;99.90
21473;DHT22;10898;48.072;11.682;2023-07-13T02:35:56;19.10;99.90
21473;DHT22;10898;48.072;11.682;2023-07-13T02:37:58;19.10;99.90
21473;DHT22;10898;48.072;11.682;2023-07-13T02:40:00;19.10;99.90
21473;DHT22;10898;48.072;11.682;2023-07-13T02:42:02;19.10;99.90
21473;DHT22;10898;48.072;11.682;2023-07-13T02:44:05;19.10;99.90
21473;DHT22;10898;48.072;11.682;2023-07-13T02:46:07;19.00;99.90
21473;DHT22;10898;48.072;11.682;2023-07-13T02:48:10;19.00;99.90
21473;DHT22;10898;48.072;11.682;2023-07-13T02:50:12;19.00;99.90
21473;DHT22;10898;48.072;11.682;2023-07-13T02:52:13;19.00;99.90
21473;DHT22;10898;48.072;11.682;2023-07-13T02:54:15;19.00;99.90
21473;DHT22;10898;48.072;11.682;2023-07-13T02:56:19;19.00;99.90
21473;DHT22;10898;48.072;11.682;2023-07-13T02:58:21;18.90;99.90
21473;DHT22;10898;48.072;11.682;2023-07-13T03:00:23;19.00;99.90
21473;DHT22;10898;48.072;11.682;2023-07-13T03:02:24;18.90;99.90
21473;DHT22;10898;48.072;11.682;2023-07-13T03:04:29;18.90;99.90
21473;DHT22;10898;48.072;11.682;2023-07-13T03:06:32;18.90;99.90
21473;DHT22;10898;48.072;11.682;2023-07-13T03:08:34;18.90;99.90
21473;DHT22;10898;48.072;11.682;2023-07-13T03:10:36;18.90;99.90
21473;DHT22;10898;48.072;11.682;2023-07-13T03:12:38;18.80;99.90
21473;DHT22;10898;48.072;11.682;2023-07-13T03:14:40;18.80;99.90
21473;DHT22;10898;48.072;11.682;2023-07-13T03:16:41;18.80;99.90
21473;DHT22;10898;48.072;11.682;2023-07-13T03:18:43;18.80;99.90
21473;DHT22;10898;48.072;11.682;2023-07-13T03:20:45;18.80;99.90
21473;DHT22;10898;48.072;11.682;2023-07-13T03:22:47;18.70;99.90
21473;DHT22;10898;48.072;11.682;2023-07-13T03:24:49;18.70;99.90
21473;DHT22;10898;48.072;11.682;2023-07-13T03:26:51;18.70;99.90
21473;DHT22;10898;48.072;11.682;2023-07-13T03:28:53;18.70;99.90
21473;DHT22;10898;48.072;11.682;2023-07-13T03:31:02;18.70;99.90
21473;DHT22;10898;48.072;11.682;2023-07-13T03:33:04;18.70;99.90
21473;DHT22;10898;48.072;11.682;2023-07-13T03:35:09;18.80;99.90
21473;DHT22;10898;48.072;11.682;2023-07-13T03:37:11;18.70;99.90
21473;DHT22;10898;48.072;11.682;2023-07-13T03:39:13;18.70;99.90
21473;DHT22;10898;48.072;11.682;2023-07-13T03:41:15;18.70;99.90
21473;DHT22;10898;48.072;11.682;2023-07-13T03:43:17;18.70;99.90
21473;DHT22;10898;48.072;11.682;2023-07-13T03:45:19;18.70;99.90
21473;DHT22;10898;48.072;11.682;2023-07-13T03:47:21;18.70;99.90
21473;DHT22;10898;48.072;11.682;2023-07-13T03:49:23;18.70;99.90
21473;DHT22;10898;48.072;11.682;2023-07-13T03:51:24;18.70;99.90
21473;DHT22;10898;48.072;11.682;2023-07-13T03:53:26;18.70;99.90
21473;DHT22;10898;48.072;11.682;2023-07-13T03:55:28;18.60;99.90
21473;DHT22;10898;48.072;11.682;2023-07-13T03:57:30;18.60;99.90
21473;DHT22;10898;48.072;11.682;2023-07-13T03:59:32;18.50;99.90
21473;DHT22;10898;48.072;11.682;2023-07-13T04:01:35;18.50;99.90
21473;DHT22;10898;48.072;11.682;2023-07-13T04:03:37;18.50;99.90
21473;DHT22;10898;48.072;11.682;2023-07-13T04:05:39;18.50;99.90
21473;DHT22;10898;48.072;11.682;2023-07-13T04:07:42;18.40;99.90
21473;DHT22;10898;48.072;11.682;2023-07-13T04:09:43;18.40;99.90
21473;DHT22;10898;48.072;11.682;2023-07-13T04:11:45;18.50;99.90
21473;DHT22;10898;48.072;11.682;2023-07-13T04:13:47;18.50;99.90
21473;DHT22;10898;48.072;11.682;2023-07-13T04:15:49;18.40;99.90
21473;DHT22;10898;48.072;11.682;2023-07-13T04:17:51;18.40;99.90
21473;DHT22;10898;48.072;11.682;2023-07-13T04:19:53;18.40;99.90
21473;DHT22;10898;48.072;11.682;2023-07-13T04:21:55;18.40;99.90
21473;DHT22;10898;48.072;11.682;2023-07-13T04:23:57;18.40;99.90
21473;DHT22;10898;48.072;11.682;2023-07-13T04:25:59;18.40;99.90
21473;DHT22;10898;48.072;11.682;2023-07-13T04:28:00;18.30;99.90
21473;DHT22;10898;48.072;11.682;2023-07-13T04:30:02;18.30;99.90
21473;DHT22;10898;48.072;11.682;2023-07-13T04:32:04;18.30;99.90
21473;DHT22;10898;48.072;11.682;2023-07-13T04:34:06;18.30;99.90
21473;DHT22;10898;48.072;11.682;2023-07-13T04:36:08;18.30;99.90
21473;DHT22;10898;48.072;11.682;2023-07-13T04:38:11;18.30;99.90
21473;DHT22;10898;48.072;11.682;2023-07-13T04:40:13;18.40;99.90
21473;DHT22;10898;48.072;11.682;2023-07-13T04:42:15;18.40;99.90
21473;DHT22;10898;48.072;11.682;2023-07-13T04:44:18;18.30;99.90
21473;DHT22;10898;48.072;11.682;2023-07-13T04:46:19;18.40;99.90
21473;DHT22;10898;48.072;11.682;2023-07-13T04:48:21;18.40;99.90
21473;DHT22;10898;48.072;11.682;2023-07-13T04:50:23;18.40;99.90
21473;DHT22;10898;48.072;11.682;2023-07-13T04:52:25;18.40;99.90
21473;DHT22;10898;48.072;11.682;2023-07-13T04:54:26;18.40;99.90
21473;DHT22;10898;48.072;11.682;2023-07-13T04:56:28;18.40;99.90
21473;DHT22;10898;48.072;11.682;2023-07-13T04:58:32;18.40;99.90
21473;DHT22;10898;48.072;11.682;2023-07-13T05:00:35;18.40;99.90
21473;DHT22;10898;48.072;11.682;2023-07-13T05:02:37;18.40;99.90
21473;DHT22;10898;48.072;11.682;2023-07-13T05:04:39;18.40;99.90
21473;DHT22;10898;48.072;11.682;2023-07-13T05:06:41;18.40;99.90
21473;DHT22;10898;48.072;11.682;2023-07-13T05:08:43;18.40;99.90
21473;DHT22;10898;48.072;11.682;2023-07-13T05:10:45;18.30;99.90
21473;DHT22;10898;48.072;11.682;2023-07-13T05:12:47;18.30;99.90
21473;DHT22;10898;48.072;11.682;2023-07-13T05:14:49;18.30;99.90
21473;DHT22;10898;48.072;11.682;2023-07-13T05:16:51;18.30;99.90
21473;DHT22;10898;48.072;11.682;2023-07-13T05:18:53;18.30;99.90
21473;DHT22;10898;48.072;11.682;2023-07-13T05:20:58;18.30;99.90
21473;DHT22;10898;48.072;11.682;2023-07-13T05:23:00;18.30;99.90
21473;DHT22;10898;48.072;11.682;2023-07-13T05:25:04;18.30;99.90
21473;DHT22;10898;48.072;11.682;2023-07-13T05:27:06;18.30;99.90
21473;DHT22;10898;48.072;11.682;2023-07-13T05:29:08;18.30;99.90
21473;DHT22;10898;48.072;11.682;2023-07-13T05:31:09;18.30;99.90
21473;DHT22;10898;48.072;11.682;2023-07-13T05:33:12;18.20;99.90
21473;DHT22;10898;48.072;11.682;2023-07-13T05:35:14;18.20;99.90
21473;DHT22;10898;48.072;11.682;2023-07-13T05:37:16;18.20;99.90
21473;DHT22;10898;48.072;11.682;2023-07-13T05:39:21;18.20;99.90
21473;DHT22;10898;48.072;11.682;2023-07-13T05:41:23;18.20;99.90
21473;DHT22;10898;48.072;11.682;2023-07-13T05:43:25;18.20;99.90
21473;DHT22;10898;48.072;11.682;2023-07-13T05:45:27;18.30;99.90
21473;DHT22;10898;48.072;11.682;2023-07-13T05:47:28;18.30;99.90
21473;DHT22;10898;48.072;11.682;2023-07-13T05:49:30;18.30;99.90
21473;DHT22;10898;48.072;11.682;2023-07-13T05:51:32;18.30;99.90
21473;DHT22;10898;48.072;11.682;2023-07-13T05:53:34;18.30;99.90
21473;DHT22;10898;48.072;11.682;2023-07-13T05:55:36;18.30;99.90
21473;DHT22;10898;48.072;11.682;2023-07-13T05:57:42;18.30;99.90
21473;DHT22;10898;48.072;11.682;2023-07-13T05:59:43;18.30;99.90
21473;DHT22;10898;48.072;11.682;2023-07-13T06:01:45;18.40;99.90
21473;DHT22;10898;48.072;11.682;2023-07-13T06:03:47;18.40;99.90
21473;DHT22;10898;48.072;11.682;2023-07-13T06:05:49;18.40;99.90
21473;DHT22;10898;48.072;11.682;2023-07-13T06:07:51;18.40;99.90
21473;DHT22;10898;48.072;11.682;2023-07-13T06:09:52;18.50;99.90
21473;DHT22;10898;48.072;11.682;2023-07-13T06:11:54;18.50;99.90
21473;DHT22;10898;48.072;11.682;2023-07-13T06:13:56;18.50;99.90
21473;DHT22;10898;48.072;11.682;2023-07-13T06:15:58;18.60;99.90
21473;DHT22;10898;48.072;11.682;2023-07-13T06:18:00;18.60;99.90
21473;DHT22;10898;48.072;11.682;2023-07-13T06:20:02;18.60;99.90
21473;DHT22;10898;48.072;11.682;2023-07-13T06:22:04;18.60;99.90
21473;DHT22;10898;48.072;11.682;2023-07-13T06:24:05;18.60;99.90
21473;DHT22;10898;48.072;11.682;2023-07-13T06:26:07;18.70;99.90
21473;DHT22;10898;48.072;11.682;2023-07-13T06:28:09;18.70;99.90
21473;DHT22;10898;48.072;11.682;2023-07-13T06:30:11;18.70;99.90
21473;DHT22;10898;48.072;11.682;2023-07-13T06:32:13;18.80;99.90
21473;DHT22;10898;48.072;11.682;2023-07-13T06:34:15;18.80;99.90
21473;DHT22;10898;48.072;11.682;2023-07-13T06:36:17;18.80;99.90
21473;DHT22;10898;48.072;11.682;2023-07-13T06:38:18;18.80;99.90
21473;DHT22;10898;48.072;11.682;2023-07-13T06:40:20;18.80;99.90
21473;DHT22;10898;48.072;11.682;2023-07-13T06:42:22;18.80;99.90
21473;DHT22;10898;48.072;11.682;2023-07-13T06:44:24;18.80;99.90
21473;DHT22;10898;48.072;11.682;2023-07-13T06:46:25;18.80;99.90
21473;DHT22;10898;48.072;11.682;2023-07-13T06:48:29;18.80;99.90
21473;DHT22;10898;48.072;11.682;2023-07-13T06:50:31;18.90;99.90
21473;DHT22;10898;48.072;11.682;2023-07-13T06:52:33;18.90;99.90
21473;DHT22;10898;48.072;11.682;2023-07-13T06:54:35;18.90;99.90
21473;DHT22;10898;48.072;11.682;2023-07-13T06:56:36;18.90;99.90
21473;DHT22;10898;48.072;11.682;2023-07-13T06:58:38;19.00;99.90
21473;DHT22;10898;48.072;11.682;2023-07-13T07:00:40;19.10;99.90
21473;DHT22;10898;48.072;11.682;2023-07-13T07:02:42;19.10;99.90
21473;DHT22;10898;48.072;11.682;2023-07-13T07:04:44;19.10;99.90
21473;DHT22;10898;48.072;11.682;2023-07-13T07:06:46;19.10;99.90
21473;DHT22;10898;48.072;11.682;2023-07-13T07:08:47;19.10;99.90
21473;DHT22;10898;48.072;11.682;2023-07-13T07:10:49;19.10;99.90
21473;DHT22;10898;48.072;11.682;2023-07-13T07:12:55;19.10;99.90
21473;DHT22;10898;48.072;11.682;2023-07-13T07:14:57;19.00;99.90
21473;DHT22;10898;48.072;11.682;2023-07-13T07:16:59;19.10;99.90
21473;DHT22;10898;48.072;11.682;2023-07-13T07:19:01;19.10;99.90
21473;DHT22;10898;48.072;11.682;2023-07-13T07:21:03;19.10;99.90
21473;DHT22;10898;48.072;11.682;2023-07-13T07:23:04;19.10;99.90
21473;DHT22;10898;48.072;11.682;2023-07-13T07:25:06;19.10;99.90
21473;DHT22;10898;48.072;11.682;2023-07-13T07:27:08;19.10;99.90
21473;DHT22;10898;48.072;11.682;2023-07-13T07:29:12;19.10;99.90
21473;DHT22;10898;48.072;11.682;2023-07-13T07:31:17;19.10;99.90
21473;DHT22;10898;48.072;11.682;2023-07-13T07:33:22;19.10;99.90
21473;DHT22;10898;48.072;11.682;2023-07-13T07:35:24;19.20;99.90
21473;DHT22;10898;48.072;11.682;2023-07-13T07:37:26;19.20;99.90
21473;DHT22;10898;48.072;11.682;2023-07-13T07:39:47;19.20;99.90
21473;DHT22;10898;48.072;11.682;2023-07-13T07:42:09;19.20;99.90
21473;DHT22;10898;48.072;11.682;2023-07-13T07:44:11;19.20;99.90
21473;DHT22;10898;48.072;11.682;2023-07-13T07:46:13;19.20;99.90
21473;DHT22;10898;48.072;11.682;2023-07-13T07:48:16;19.20;99.90
21473;DHT22;10898;48.072;11.682;2023-07-13T07:50:17;19.20;99.90
21473;DHT22;10898;48.072;11.682;2023-07-13T07:52:21;19.20;99.90
21473;DHT22;10898;48.072;11.682;2023-07-13T07:54:23;19.10;99.90
21473;DHT22;10898;48.072;11.682;2023-07-13T07:56:45;19.20;99.90
21473;DHT22;10898;48.072;11.682;2023-07-13T07:59:06;19.20;99.90
21473;DHT22;10898;48.072;11.682;2023-07-13T08:01:11;19.20;99.90
21473;DHT22;10898;48.072;11.682;2023-07-13T08:03:15;19.20;99.90
21473;DHT22;10898;48.072;11.682;2023-07-13T08:05:20;19.20;99.90
21473;DHT22;10898;48.072;11.682;2023-07-13T08:07:39;19.20;99.90
21473;DHT22;10898;48.072;11.682;2023-07-13T08:09:41;19.20;99.90
21473;DHT22;10898;48.072;11.682;2023-07-13T08:11:43;19.20;99.90
21473;DHT22;10898;48.072;11.682;2023-07-13T08:13:49;19.10;99.90
21473;DHT22;10898;48.072;11.682;2023-07-13T08:15:55;19.10;99.90
21473;DHT22;10898;48.072;11.682;2023-07-13T08:17:56;19.00;99.90
21473;DHT22;10898;48.072;11.682;2023-07-13T08:19:58;19.00;99.90
21473;DHT22;10898;48.072;11.682;2023-07-13T08:22:00;18.90;99.90
21473;DHT22;10898;48.072;11.682;2023-07-13T08:24:02;18.90;99.90
21473;DHT22;10898;48.072;11.682;2023-07-13T08:26:04;18.90;99.90
21473;DHT22;10898;48.072;11.682;2023-07-13T08:28:06;18.90;99.90
21473;DHT22;10898;48.072;11.682;2023-07-13T08:30:07;18.90;99.90
21473;DHT22;10898;48.072;11.682;2023-07-13T08:32:09;18.80;99.90
21473;DHT22;10898;48.072;11.682;2023-07-13T08:34:12;18.80;99.90
21473;DHT22;10898;48.072;11.682;2023-07-13T08:36:18;18.80;99.90
21473;DHT22;10898;48.072;11.682;2023-07-13T08:38:20;18.80;99.90
21473;DHT22;10898;48.072;11.682;2023-07-13T08:40:23;18.70;99.90
21473;DHT22;10898;48.072;11.682;2023-07-13T08:42:35;18.70;99.90
21473;DHT22;10898;48.072;11.682;2023-07-13T08:46:58;18.70;99.90
21473;DHT22;10898;48.072;11.682;2023-07-13T08:49:05;18.70;99.90
21473;DHT22;10898;48.072;11.682;2023-07-13T08:53:33;18.60;99.90
21473;DHT22;10898;48.072;11.682;2023-07-13T08:55:36;18.60;99.90
21473;DHT22;10898;48.072;11.682;2023-07-13T08:57:40;18.60;99.90
21473;DHT22;10898;48.072;11.682;2023-07-13T08:59:43;18.60;99.90
21473;DHT22;10898;48.072;11.682;2023-07-13T09:03:56;18.50;99.90
21473;DHT22;10898;48.072;11.682;2023-07-13T09:06:00;18.50;99.90
21473;DHT22;10898;48.072;11.682;2023-07-13T09:10:19;18.50;99.90
21473;DHT22;10898;48.072;11.682;2023-07-13T09:12:27;18.50;99.90
21473;DHT22;10898;48.072;11.682;2023-07-13T09:16:35;18.50;99.90
21473;DHT22;10898;48.072;11.682;2023-07-13T09:18:40;18.50;99.90
21473;DHT22;10898;48.072;11.682;2023-07-13T09:20:57;18.50;99.90
21473;DHT22;10898;48.072;11.682;2023-07-13T09:23:00;18.50;99.90
21473;DHT22;10898;48.072;11.682;2023-07-13T09:25:20;18.50;99.90
21473;DHT22;10898;48.072;11.682;2023-07-13T09:27:27;18.60;99.90
21473;DHT22;10898;48.072;11.682;2023-07-13T09:29:32;18.60;99.90
21473;DHT22;10898;48.072;11.682;2023-07-13T09:31:45;18.60;99.90
21473;DHT22;10898;48.072;11.682;2023-07-13T09:33:48;18.60;99.90
21473;DHT22;10898;48.072;11.682;2023-07-13T09:35:52;18.70;99.90
21473;DHT22;10898;48.072;11.682;2023-07-13T09:37:57;18.70;99.90
21473;DHT22;10898;48.072;11.682;2023-07-13T09:40:02;18.70;99.90
21473;DHT22;10898;48.072;11.682;2023-07-13T09:42:13;18.70;99.90
21473;DHT22;10898;48.072;11.682;2023-07-13T09:44:18;18.70;99.90
21473;DHT22;10898;48.072;11.682;2023-07-13T09:46:30;18.80;99.90
21473;DHT22;10898;48.072;11.682;2023-07-13T09:48:35;18.80;99.90
21473;DHT22;10898;48.072;11.682;2023-07-13T09:50:37;18.80;99.90
21473;DHT22;10898;48.072;11.682;2023-07-13T09:52:43;18.80;99.90
21473;DHT22;10898;48.072;11.682;2023-07-13T09:54:48;18.90;99.90
21473;DHT22;10898;48.072;11.682;2023-07-13T09:56:57;18.90;99.90
21473;DHT22;10898;48.072;11.682;2023-07-13T09:58:59;18.90;99.90
21473;DHT22;10898;48.072;11.682;2023-07-13T10:01:02;19.00;99.90
21473;DHT22;10898;48.072;11.682;2023-07-13T10:03:16;19.00;99.90
21473;DHT22;10898;48.072;11.682;2023-07-13T10:05:18;19.00;99.90
21473;DHT22;10898;48.072;11.682;2023-07-13T10:07:22;19.10;99.90
21473;DHT22;10898;48.072;11.682;2023-07-13T10:09:30;19.10;99.90
21473;DHT22;10898;48.072;11.682;2023-07-13T10:11:34;19.10;99.90
21473;DHT22;10898;48.072;11.682;2023-07-13T10:13:37;19.20;99.90
21473;DHT22;10898;48.072;11.682;2023-07-13T10:15:41;19.20;99.90
21473;DHT22;10898;48.072;11.682;2023-07-13T10:17:44;19.20;99.90
21473;DHT22;10898;48.072;11.682;2023-07-13T10:19:46;19.30;99.90
21473;DHT22;10898;48.072;11.682;2023-07-13T10:22:12;19.30;99.90
21473;DHT22;10898;48.072;11.682;2023-07-13T10:24:13;19.30;99.90
21473;DHT22;10898;48.072;11.682;2023-07-13T10:26:19;19.40;99.90
21473;DHT22;10898;48.072;11.682;2023-07-13T10:30:26;19.50;99.90
21473;DHT22;10898;48.072;11.682;2023-07-13T10:32:30;19.60;99.90
21473;DHT22;10898;48.072;11.682;2023-07-13T10:34:32;19.70;99.90
21473;DHT22;10898;48.072;11.682;2023-07-13T10:36:45;19.80;99.90
21473;DHT22;10898;48.072;11.682;2023-07-13T10:38:48;19.80;99.90
21473;DHT22;10898;48.072;11.682;2023-07-13T10:40:56;20.00;99.90
21473;DHT22;10898;48.072;11.682;2023-07-13T10:42:59;20.00;99.90
21473;DHT22;10898;48.072;11.682;2023-07-13T10:45:13;20.20;99.90
21473;DHT22;10898;48.072;11.682;2023-07-13T10:47:16;20.30;99.90
21473;DHT22;10898;48.072;11.682;2023-07-13T10:49:19;20.40;99.90
21473;DHT22;10898;48.072;11.682;2023-07-13T10:51:21;20.40;99.90
21473;DHT22;10898;48.072;11.682;2023-07-13T10:53:28;20.50;99.90
21473;DHT22;10898;48.072;11.682;2023-07-13T10:55:40;20.60;99.90
21473;DHT22;10898;48.072;11.682;2023-07-13T10:57:55;20.60;99.90
21473;DHT22;10898;48.072;11.682;2023-07-13T11:02:21;20.80;99.90
21473;DHT22;10898;48.072;11.682;2023-07-13T11:04:25;20.80;99.90
21473;DHT22;10898;48.072;11.682;2023-07-13T11:08:33;21.10;99.90
21473;DHT22;10898;48.072;11.682;2023-07-13T11:10:46;21.20;99.90
21473;DHT22;10898;48.072;11.682;2023-07-13T11:12:49;21.40;99.90
21473;DHT22;10898;48.072;11.682;2023-07-13T11:16:56;21.50;99.90
21473;DHT22;10898;48.072;11.682;2023-07-13T11:21:13;21.70;99.90
21473;DHT22;10898;48.072;11.682;2023-07-13T11:23:31;21.70;99.90
21473;DHT22;10898;48.072;11.682;2023-07-13T11:25:34;21.80;99.90
21473;DHT22;10898;48.072;11.682;2023-07-13T11:29:38;22.10;99.90
21473;DHT22;10898;48.072;11.682;2023-07-13T11:31:41;22.20;99.90
21473;DHT22;10898;48.072;11.682;2023-07-13T11:33:49;22.30;99.90
21473;DHT22;10898;48.072;11.682;2023-07-13T11:37:53;22.40;99.90
21473;DHT22;10898;48.072;11.682;2023-07-13T11:39:56;22.50;99.90
21473;DHT22;10898;48.072;11.682;2023-07-13T11:41:59;22.50;99.90
21473;DHT22;10898;48.072;11.682;2023-07-13T11:44:05;22.60;99.90
21473;DHT22;10898;48.072;11.682;2023-07-13T11:48:23;22.70;99.90
21473;DHT22;10898;48.072;11.682;2023-07-13T11:50:25;22.80;99.90
21473;DHT22;10898;48.072;11.682;2023-07-13T11:52:30;22.80;99.90
21473;DHT22;10898;48.072;11.682;2023-07-13T11:54:34;22.90;99.90
21473;DHT22;10898;48.072;11.682;2023-07-13T11:56:36;22.90;99.90
21473;DHT22;10898;48.072;11.682;2023-07-13T11:58:39;23.00;99.90
21473;DHT22;10898;48.072;11.682;2023-07-13T12:00:40;23.00;99.90
21473;DHT22;10898;48.072;11.682;2023-07-13T12:02:43;23.00;99.90
21473;DHT22;10898;48.072;11.682;2023-07-13T12:04:46;23.10;99.90
21473;DHT22;10898;48.072;11.682;2023-07-13T12:06:56;23.20;99.90
21473;DHT22;10898;48.072;11.682;2023-07-13T12:08:59;23.30;99.90
21473;DHT22;10898;48.072;11.682;2023-07-13T12:11:04;23.30;99.90
21473;DHT22;10898;48.072;11.682;2023-07-13T12:13:08;23.40;98.70
21473;DHT22;10898;48.072;11.682;2023-07-13T12:15:10;23.50;99.10
21473;DHT22;10898;48.072;11.682;2023-07-13T12:17:20;23.50;94.70
21473;DHT22;10898;48.072;11.682;2023-07-13T12:19:23;23.50;93.60
21473;DHT22;10898;48.072;11.682;2023-07-13T12:21:30;23.50;93.40
21473;DHT22;10898;48.072;11.682;2023-07-13T12:23:33;23.40;92.90
21473;DHT22;10898;48.072;11.682;2023-07-13T12:25:36;23.50;93.30
21473;DHT22;10898;48.072;11.682;2023-07-13T12:27:37;23.40;91.00
21473;DHT22;10898;48.072;11.682;2023-07-13T12:29:39;23.40;92.10
21473;DHT22;10898;48.072;11.682;2023-07-13T12:31:52;23.40;93.10
21473;DHT22;10898;48.072;11.682;2023-07-13T12:34:13;23.50;95.50
21473;DHT22;10898;48.072;11.682;2023-07-13T12:36:15;23.60;96.00
21473;DHT22;10898;48.072;11.682;2023-07-13T12:38:17;23.80;94.90
21473;DHT22;10898;48.072;11.682;2023-07-13T12:40:19;23.90;90.80
21473;DHT22;10898;48.072;11.682;2023-07-13T12:42:25;23.90;90.90
21473;DHT22;10898;48.072;11.682;2023-07-13T12:44:30;23.90;92.70
21473;DHT22;10898;48.072;11.682;2023-07-13T12:46:32;24.10;94.00
21473;DHT22;10898;48.072;11.682;2023-07-13T12:48:38;24.30;92.80
21473;DHT22;10898;48.072;11.682;2023-07-13T12:50:51;24.40;92.90
21473;DHT22;10898;48.072;11.682;2023-07-13T12:52:56;24.50;91.40
21473;DHT22;10898;48.072;11.682;2023-07-13T12:55:04;24.60;87.70
21473;DHT22;10898;48.072;11.682;2023-07-13T12:57:12;24.60;87.40
21473;DHT22;10898;48.072;11.682;2023-07-13T12:59:17;24.70;91.40
21473;DHT22;10898;48.072;11.682;2023-07-13T13:01:21;24.80;91.80
21473;DHT22;10898;48.072;11.682;2023-07-13T13:05:28;24.80;85.70
21473;DHT22;10898;48.072;11.682;2023-07-13T13:07:30;24.70;84.30
21473;DHT22;10898;48.072;11.682;2023-07-13T13:09:32;24.60;85.20
21473;DHT22;10898;48.072;11.682;2023-07-13T13:11:33;24.50;87.80
21473;DHT22;10898;48.072;11.682;2023-07-13T13:13:36;24.60;88.00
21473;DHT22;10898;48.072;11.682;2023-07-13T13:15:38;24.60;85.70
21473;DHT22;10898;48.072;11.682;2023-07-13T13:17:39;24.60;87.60
21473;DHT22;10898;48.072;11.682;2023-07-13T13:19:41;24.60;90.20